Time;durP1;ratioP1;P1;durP2;ratioP2;P2;SDS_P1;SDS_P2;PMS_P1;PMS_P2;Temp;Humidity;BMP_temperature;BMP_pressure;BME280_temperature;BME280_humidity;BME280_pressure;Samples;Min_cycle;Max_cycle;Signal;HPM_P1;HPM_P2
2023/09/29 00:00:51;;;;;;;10.73;4.45;;;15.70;99.90;;;;;;5074647;28;20485;-74
2023/09/29 00:03:17;;;;;;;10.90;4.25;;;15.70;99.90;;;;;;5074902;28;20470;-74
2023/09/29 00:05:43;;;;;;;7.80;4.55;;;15.70;99.90;;;;;;5074921;28;20098;-74
2023/09/29 00:08:13;;;;;;;8.10;4.35;;;15.70;99.90;;;;;;5074821;28;20074;-75
2023/09/29 00:10:40;;;;;;;8.60;4.30;;;15.70;99.90;;;;;;5074813;28;20079;-75
2023/09/29 00:13:08;;;;;;;10.90;4.18;;;15.70;99.90;;;;;;5073459;28;20051;-75
2023/09/29 00:15:34;;;;;;;12.35;4.60;;;15.70;99.90;;;;;;5074774;28;20048;-75
2023/09/29 00:18:00;;;;;;;6.32;3.65;;;15.70;99.90;;;;;;5074377;28;20555;-74
2023/09/29 00:20:26;;;;;;;10.00;3.88;;;15.70;99.90;;;;;;5073336;28;20048;-75
2023/09/29 00:22:57;;;;;;;9.65;4.88;;;15.80;99.90;;;;;;5074412;28;20098;-75
2023/09/29 00:25:23;;;;;;;10.98;3.97;;;15.80;99.90;;;;;;5074465;28;20059;-75
2023/09/29 00:27:50;;;;;;;9.00;3.80;;;15.80;99.90;;;;;;5075061;28;20044;-75
2023/09/29 00:30:16;;;;;;;8.65;3.80;;;15.80;99.90;;;;;;5075190;28;20048;-74
2023/09/29 00:32:50;;;;;;;8.50;4.15;;;15.90;99.90;;;;;;5073197;28;20052;-74
2023/09/29 00:37:56;;;;;;;9.32;3.95;;;16.00;99.90;;;;;;5074193;28;20106;-74
2023/09/29 00:40:22;;;;;;;7.95;3.88;;;16.00;99.90;;;;;;5074117;28;20416;-74
2023/09/29 00:42:52;;;;;;;6.97;3.72;;;16.00;99.90;;;;;;5074237;28;20504;-74
2023/09/29 00:45:22;;;;;;;7.75;4.20;;;16.00;99.90;;;;;;5074413;28;20048;-75
2023/09/29 00:47:55;;;;;;;9.82;4.13;;;16.10;99.90;;;;;;5074886;28;20040;-75
2023/09/29 00:50:23;;;;;;;6.55;3.70;;;16.10;99.90;;;;;;5073987;28;20052;-74
2023/09/29 00:52:52;;;;;;;8.82;3.65;;;16.10;99.90;;;;;;5073935;28;20044;-75
2023/09/29 00:55:24;;;;;;;10.95;3.83;;;16.20;99.90;;;;;;5073943;28;20126;-75
2023/09/29 00:57:51;;;;;;;9.20;3.92;;;16.20;99.90;;;;;;5073888;28;20048;-75
2023/09/29 01:00:30;;;;;;;7.75;3.55;;;16.20;99.90;;;;;;5073924;28;20052;-74
2023/09/29 01:02:57;;;;;;;8.20;3.58;;;16.20;99.90;;;;;;5073831;28;20048;-75
2023/09/29 01:05:23;;;;;;;7.43;3.88;;;16.20;99.90;;;;;;5074389;28;20048;-75
2023/09/29 01:07:51;;;;;;;8.05;3.72;;;16.20;99.90;;;;;;5073786;28;20055;-75
2023/09/29 01:10:17;;;;;;;8.25;3.83;;;16.20;99.90;;;;;;5073430;28;20055;-74
2023/09/29 01:12:44;;;;;;;8.85;3.45;;;16.20;99.90;;;;;;5073740;28;20385;-75
2023/09/29 01:15:14;;;;;;;7.43;4.15;;;16.20;99.90;;;;;;5073794;28;20131;-75
2023/09/29 01:17:43;;;;;;;7.95;4.20;;;16.20;99.90;;;;;;5074348;28;20143;-74
2023/09/29 01:20:17;;;;;;;6.90;3.67;;;16.10;99.90;;;;;;5073755;28;20060;-75
2023/09/29 01:22:49;;;;;;;10.50;3.92;;;16.10;99.90;;;;;;5074208;28;20041;-74
2023/09/29 01:25:15;;;;;;;10.30;3.88;;;16.10;99.90;;;;;;5073624;28;20043;-75
2023/09/29 01:27:41;;;;;;;9.07;3.95;;;16.10;99.90;;;;;;5073686;28;20045;-74
2023/09/29 01:30:09;;;;;;;9.13;3.80;;;16.10;99.90;;;;;;5073593;28;20062;-74
2023/09/29 01:32:35;;;;;;;6.85;3.50;;;16.00;99.90;;;;;;5071964;28;20489;-74
2023/09/29 01:35:00;;;;;;;7.93;3.65;;;16.00;99.90;;;;;;5073630;28;20041;-75
2023/09/29 01:37:26;;;;;;;6.43;3.38;;;16.00;99.90;;;;;;5073584;28;20097;-75
2023/09/29 01:39:52;;;;;;;8.27;3.70;;;16.00;99.90;;;;;;5074635;28;20079;-74
2023/09/29 01:42:19;;;;;;;10.77;3.83;;;16.00;99.90;;;;;;5073421;28;20048;-75
2023/09/29 01:44:44;;;;;;;8.38;3.92;;;16.10;99.90;;;;;;5073992;28;20059;-74
2023/09/29 01:47:10;;;;;;;6.93;3.88;;;16.10;99.90;;;;;;5073456;28;20045;-75
2023/09/29 01:49:38;;;;;;;7.13;3.50;;;16.20;99.90;;;;;;5073439;28;20044;-75
2023/09/29 01:52:04;;;;;;;8.48;3.75;;;16.20;99.90;;;;;;5073861;28;20045;-75
2023/09/29 01:54:31;;;;;;;8.35;4.38;;;16.20;99.90;;;;;;5073325;28;20119;-75
2023/09/29 01:56:57;;;;;;;9.40;3.80;;;16.20;99.90;;;;;;5073343;28;20127;-75
2023/09/29 01:59:22;;;;;;;10.15;4.15;;;16.30;99.90;;;;;;5073299;28;20083;-74
2023/09/29 02:01:48;;;;;;;7.90;4.50;;;16.30;99.90;;;;;;5073796;28;20048;-74
2023/09/29 02:04:14;;;;;;;9.95;3.72;;;16.30;99.90;;;;;;5073235;28;20048;-75
2023/09/29 02:06:40;;;;;;;9.38;3.58;;;16.30;99.90;;;;;;5073316;28;20045;-74
2023/09/29 02:09:09;;;;;;;8.18;4.72;;;16.30;99.90;;;;;;5073693;28;20040;-74
2023/09/29 02:11:38;;;;;;;11.55;5.40;;;16.20;99.90;;;;;;5073725;28;20051;-74
2023/09/29 02:14:05;;;;;;;10.90;5.57;;;16.20;99.90;;;;;;5073087;28;20094;-75
2023/09/29 02:16:31;;;;;;;9.95;5.25;;;16.20;99.90;;;;;;5073639;28;20110;-75
2023/09/29 02:18:56;;;;;;;8.98;5.40;;;16.20;99.90;;;;;;5072918;28;20048;-75
2023/09/29 02:21:23;;;;;;;8.45;5.78;;;16.20;99.90;;;;;;5074515;28;20073;-75
2023/09/29 02:23:48;;;;;;;11.35;5.38;;;16.10;99.90;;;;;;5077169;28;20055;-75
2023/09/29 02:26:17;;;;;;;10.50;5.55;;;16.20;99.90;;;;;;5076867;28;20397;-75
2023/09/29 02:28:43;;;;;;;12.07;6.00;;;16.20;99.90;;;;;;5076786;28;20090;-75
2023/09/29 02:31:13;;;;;;;11.88;5.78;;;16.20;99.90;;;;;;5077210;28;20048;-75
2023/09/29 02:33:40;;;;;;;13.07;5.05;;;16.10;99.90;;;;;;5075351;28;20044;-75
2023/09/29 02:36:07;;;;;;;12.07;5.80;;;16.20;99.90;;;;;;5076658;28;20051;-75
2023/09/29 02:38:33;;;;;;;9.98;5.75;;;16.20;99.90;;;;;;5076630;28;20068;-75
2023/09/29 02:41:01;;;;;;;11.32;5.68;;;16.20;99.90;;;;;;5076573;28;20048;-75
2023/09/29 02:43:32;;;;;;;11.88;6.35;;;16.20;99.90;;;;;;5076405;28;20442;-75
2023/09/29 02:45:57;;;;;;;9.13;5.82;;;16.10;99.90;;;;;;5076481;28;20055;-75
2023/09/29 02:48:24;;;;;;;10.13;5.57;;;16.10;99.90;;;;;;5076342;28;20044;-75
2023/09/29 02:50:49;;;;;;;9.75;5.68;;;16.10;99.90;;;;;;5076424;28;20054;-75
2023/09/29 02:53:15;;;;;;;10.32;6.10;;;16.10;99.90;;;;;;5076402;28;20041;-75
2023/09/29 02:55:42;;;;;;;11.93;6.82;;;16.10;99.90;;;;;;5076958;28;20040;-75
2023/09/29 02:58:08;;;;;;;11.65;6.80;;;16.10;99.90;;;;;;5076221;28;20051;-75
2023/09/29 03:00:35;;;;;;;11.55;6.75;;;16.10;99.90;;;;;;5076203;28;20131;-76
2023/09/29 03:03:02;;;;;;;11.68;6.75;;;16.10;99.90;;;;;;5075854;28;20542;-76
2023/09/29 03:05:28;;;;;;;12.85;6.82;;;16.10;99.90;;;;;;5076140;28;20048;-75
2023/09/29 03:07:55;;;;;;;11.88;6.93;;;16.10;99.90;;;;;;5075959;28;20053;-74
2023/09/29 03:10:21;;;;;;;10.93;6.85;;;16.10;99.90;;;;;;5075927;28;20084;-75
2023/09/29 03:12:48;;;;;;;12.43;6.43;;;16.10;99.90;;;;;;5075734;28;20141;-74
2023/09/29 03:15:17;;;;;;;11.02;6.63;;;16.00;99.90;;;;;;5075933;28;20623;-76
2023/09/29 03:17:46;;;;;;;11.77;6.63;;;16.10;99.90;;;;;;5076597;28;20472;-75
2023/09/29 03:20:12;;;;;;;15.05;7.07;;;16.10;99.90;;;;;;5075885;28;20082;-75
2023/09/29 03:22:39;;;;;;;11.25;6.72;;;16.10;99.90;;;;;;5075769;28;20045;-75
2023/09/29 03:25:06;;;;;;;11.02;6.65;;;16.10;99.90;;;;;;5075687;28;20058;-75
2023/09/29 03:27:32;;;;;;;14.23;6.88;;;16.10;99.90;;;;;;5075661;28;20087;-75
2023/09/29 03:30:01;;;;;;;11.98;7.13;;;16.10;99.90;;;;;;5075552;28;20044;-75
2023/09/29 03:32:26;;;;;;;13.18;7.78;;;16.10;99.90;;;;;;5075653;28;20052;-75
2023/09/29 03:34:52;;;;;;;11.65;6.65;;;16.20;99.90;;;;;;5075472;28;20040;-75
2023/09/29 03:37:19;;;;;;;13.00;6.68;;;16.20;99.90;;;;;;5075471;28;20040;-74
2023/09/29 03:39:47;;;;;;;10.63;7.22;;;16.20;99.90;;;;;;5075964;28;20099;-75
2023/09/29 03:42:14;;;;;;;12.77;7.72;;;16.20;99.90;;;;;;5075601;28;20044;-75
2023/09/29 03:44:39;;;;;;;11.38;6.45;;;16.20;99.90;;;;;;5074661;28;20048;-75
2023/09/29 03:47:05;;;;;;;11.27;6.65;;;16.20;99.90;;;;;;5075284;28;20363;-75
2023/09/29 03:49:31;;;;;;;12.88;6.82;;;16.20;99.90;;;;;;5074619;28;20437;-75
2023/09/29 03:51:57;;;;;;;12.18;7.43;;;16.20;99.90;;;;;;5075237;28;20055;-75
2023/09/29 03:54:23;;;;;;;9.05;6.40;;;16.30;99.90;;;;;;5075552;28;20389;-75
2023/09/29 03:56:51;;;;;;;13.68;7.55;;;16.30;99.90;;;;;;5074999;28;20044;-75
2023/09/29 03:59:18;;;;;;;11.45;6.75;;;16.20;99.90;;;;;;5074780;28;20489;-75
2023/09/29 04:01:45;;;;;;;9.40;6.50;;;16.30;99.90;;;;;;5074075;28;20048;-75
2023/09/29 04:04:11;;;;;;;14.10;7.13;;;16.30;99.90;;;;;;5074947;28;20055;-75
2023/09/29 04:06:37;;;;;;;11.63;7.03;;;16.30;99.90;;;;;;5074158;28;20052;-75
2023/09/29 04:09:04;;;;;;;10.07;7.03;;;16.40;99.90;;;;;;5074789;28;20127;-75
2023/09/29 04:11:30;;;;;;;12.77;6.97;;;16.40;99.90;;;;;;5075160;28;20103;-75
2023/09/29 04:13:56;;;;;;;11.95;6.95;;;16.30;99.90;;;;;;5074469;28;20036;-75
2023/09/29 04:16:22;;;;;;;12.93;7.70;;;16.40;99.90;;;;;;5073789;28;20397;-75
2023/09/29 04:18:48;;;;;;;11.85;6.82;;;16.30;99.90;;;;;;5074511;28;20040;-75
2023/09/29 04:21:15;;;;;;;10.68;7.13;;;16.40;99.90;;;;;;5074626;28;20048;-75
2023/09/29 04:23:41;;;;;;;12.52;7.07;;;16.40;99.90;;;;;;5074343;28;20052;-74
2023/09/29 04:26:20;;;;;;;12.85;8.07;;;16.40;99.90;;;;;;5074984;28;20083;-76
2023/09/29 04:28:46;;;;;;;10.18;6.40;;;16.40;99.90;;;;;;5074387;28;20105;-75
2023/09/29 04:31:16;;;;;;;13.07;8.32;;;16.40;99.90;;;;;;5074427;28;20091;-75
2023/09/29 04:33:42;;;;;;;10.63;7.07;;;16.40;99.90;;;;;;5074853;28;20132;-75
2023/09/29 04:36:08;;;;;;;9.48;6.63;;;16.40;99.90;;;;;;5073430;28;20128;-75
2023/09/29 04:38:34;;;;;;;9.27;7.13;;;16.50;99.90;;;;;;5074943;28;20059;-75
2023/09/29 04:41:00;;;;;;;9.90;6.55;;;16.50;99.90;;;;;;5074214;28;20048;-76
2023/09/29 04:43:28;;;;;;;10.48;7.05;;;16.50;99.90;;;;;;5074944;28;20424;-75
2023/09/29 04:45:54;;;;;;;13.65;7.45;;;16.50;99.90;;;;;;5073879;28;20477;-75
2023/09/29 04:48:20;;;;;;;13.40;7.90;;;16.40;99.90;;;;;;5074094;28;20404;-75
2023/09/29 04:50:45;;;;;;;10.50;6.75;;;16.40;99.90;;;;;;5074000;28;20067;-75
2023/09/29 04:53:11;;;;;;;11.48;8.13;;;16.40;99.90;;;;;;5074011;28;20424;-75
2023/09/29 04:55:37;;;;;;;11.23;7.30;;;16.40;99.90;;;;;;5074011;28;20040;-75
2023/09/29 04:58:02;;;;;;;12.45;7.45;;;16.40;99.90;;;;;;5072493;28;20044;-75
2023/09/29 05:00:28;;;;;;;13.23;7.50;;;16.40;99.90;;;;;;5074813;28;20048;-75
2023/09/29 05:02:54;;;;;;;13.40;7.53;;;16.40;99.90;;;;;;5072912;28;20045;-75
2023/09/29 05:05:19;;;;;;;10.35;7.00;;;16.40;99.90;;;;;;5072889;28;20044;-76
2023/09/29 05:07:45;;;;;;;13.27;7.25;;;16.40;99.90;;;;;;5073800;28;20048;-76
2023/09/29 05:10:15;;;;;;;13.30;7.75;;;16.40;99.90;;;;;;5074649;28;20474;-76
2023/09/29 05:12:43;;;;;;;9.05;7.35;;;16.40;99.90;;;;;;5074562;28;20045;-75
2023/09/29 05:15:09;;;;;;;10.40;6.90;;;16.40;99.90;;;;;;5074013;28;20048;-75
2023/09/29 05:17:35;;;;;;;10.23;6.55;;;16.40;99.90;;;;;;5073532;28;20131;-76
2023/09/29 05:20:02;;;;;;;10.85;6.50;;;16.40;99.90;;;;;;5073738;28;20123;-75
2023/09/29 05:22:28;;;;;;;8.57;6.25;;;16.40;99.90;;;;;;5073722;28;20059;-75
2023/09/29 05:24:54;;;;;;;13.23;6.70;;;16.40;99.90;;;;;;5073557;28;20048;-75
2023/09/29 05:27:20;;;;;;;8.10;6.15;;;16.50;99.90;;;;;;5073337;28;20040;-75
2023/09/29 05:29:46;;;;;;;9.45;6.68;;;16.50;99.90;;;;;;5073220;28;20046;-75
2023/09/29 05:32:12;;;;;;;9.80;6.40;;;16.50;99.90;;;;;;5074344;28;20389;-75
2023/09/29 05:34:37;;;;;;;10.38;6.45;;;16.50;99.90;;;;;;5073516;28;20048;-76
2023/09/29 05:37:04;;;;;;;11.32;6.80;;;16.50;99.90;;;;;;5073828;28;20063;-75
2023/09/29 05:39:31;;;;;;;8.85;5.90;;;16.50;99.90;;;;;;5073559;28;20057;-75
2023/09/29 05:41:57;;;;;;;9.68;5.60;;;16.50;99.90;;;;;;5073454;28;20088;-75
2023/09/29 05:44:23;;;;;;;10.27;5.78;;;16.60;99.90;;;;;;5073387;28;20469;-75
2023/09/29 05:46:49;;;;;;;9.07;5.60;;;16.60;99.90;;;;;;5073449;28;20048;-75
2023/09/29 05:49:15;;;;;;;9.23;5.80;;;16.60;99.90;;;;;;5072334;28;20056;-75
2023/09/29 05:51:40;;;;;;;8.07;5.20;;;16.60;99.90;;;;;;5073948;28;20045;-75
2023/09/29 05:54:06;;;;;;;8.80;5.78;;;16.60;99.90;;;;;;5073241;28;20041;-77
2023/09/29 05:56:32;;;;;;;9.60;5.55;;;16.60;99.90;;;;;;5076449;28;20613;-75
2023/09/29 05:58:58;;;;;;;8.15;5.70;;;16.60;99.90;;;;;;5076419;28;20079;-76
2023/09/29 06:01:27;;;;;;;9.95;6.07;;;16.60;99.90;;;;;;5077228;28;20048;-75
2023/09/29 06:03:53;;;;;;;9.50;5.97;;;16.60;99.90;;;;;;5076081;28;20047;-75
2023/09/29 06:06:19;;;;;;;11.77;6.07;;;16.60;99.90;;;;;;5076989;28;20385;-74
2023/09/29 06:08:45;;;;;;;11.70;5.80;;;16.70;99.90;;;;;;5075674;28;20040;-75
2023/09/29 06:11:11;;;;;;;9.45;5.72;;;16.60;99.90;;;;;;5076989;28;20045;-68
2023/09/29 06:13:37;;;;;;;9.85;5.80;;;16.60;99.90;;;;;;5077013;28;20044;-68
2023/09/29 06:16:04;;;;;;;9.68;5.40;;;16.60;99.90;;;;;;5076995;28;20508;-68
2023/09/29 06:18:30;;;;;;;7.22;5.20;;;16.60;99.90;;;;;;5076946;28;20044;-68
2023/09/29 06:20:56;;;;;;;6.97;4.80;;;16.70;99.90;;;;;;5076967;28;20392;-68
2023/09/29 06:23:21;;;;;;;7.97;5.38;;;16.70;99.90;;;;;;5076822;28;20044;-69
2023/09/29 06:25:47;;;;;;;8.57;5.25;;;16.70;99.90;;;;;;5076831;28;20052;-68
2023/09/29 06:28:13;;;;;;;8.57;4.72;;;16.70;99.90;;;;;;5076625;28;20131;-69
2023/09/29 06:30:38;;;;;;;8.18;4.88;;;16.70;99.90;;;;;;5076931;28;20131;-68
2023/09/29 06:33:06;;;;;;;7.03;4.45;;;16.70;99.90;;;;;;5076595;28;20040;-68
2023/09/29 06:35:32;;;;;;;9.20;4.53;;;16.70;99.90;;;;;;5077288;28;20048;-68
2023/09/29 06:37:58;;;;;;;6.38;4.50;;;16.70;99.90;;;;;;5076518;28;20123;-68
2023/09/29 06:40:23;;;;;;;7.85;4.50;;;16.80;99.90;;;;;;5075419;28;20467;-68
2023/09/29 06:42:49;;;;;;;6.57;4.57;;;16.80;99.90;;;;;;5076287;28;20048;-68
2023/09/29 06:45:15;;;;;;;6.10;3.90;;;16.80;99.90;;;;;;5075821;28;20052;-68
2023/09/29 06:47:40;;;;;;;5.90;4.20;;;16.80;99.90;;;;;;5077343;28;20041;-68
2023/09/29 06:50:10;;;;;;;5.82;4.43;;;16.80;99.90;;;;;;5076717;28;20070;-69
2023/09/29 06:52:37;;;;;;;6.15;3.80;;;16.90;99.90;;;;;;5076840;28;20516;-68
2023/09/29 06:55:03;;;;;;;7.93;4.07;;;16.90;99.90;;;;;;5077108;28;20040;-68
2023/09/29 06:57:29;;;;;;;8.27;3.70;;;16.90;99.90;;;;;;5076306;28;20051;-68
2023/09/29 06:59:55;;;;;;;5.25;3.72;;;16.90;99.90;;;;;;5077111;28;20040;-68
2023/09/29 07:02:20;;;;;;;7.22;3.97;;;17.00;99.90;;;;;;5076250;28;20040;-69
2023/09/29 07:04:47;;;;;;;6.97;3.90;;;17.00;99.90;;;;;;5076200;28;20148;-68
2023/09/29 07:07:13;;;;;;;6.60;3.63;;;17.00;99.90;;;;;;5075495;28;20041;-68
2023/09/29 07:09:39;;;;;;;5.47;3.30;;;17.00;99.90;;;;;;5076130;28;20119;-69
2023/09/29 07:12:06;;;;;;;5.15;3.53;;;17.00;99.90;;;;;;5076144;28;20144;-68
2023/09/29 07:14:32;;;;;;;6.20;3.40;;;17.00;99.90;;;;;;5074778;28;20091;-68
2023/09/29 07:16:58;;;;;;;7.05;3.17;;;17.00;99.90;;;;;;5075464;28;20068;-69
2023/09/29 07:19:23;;;;;;;5.72;3.35;;;17.00;99.90;;;;;;5074762;28;20040;-68
2023/09/29 07:21:49;;;;;;;4.47;3.13;;;17.00;99.90;;;;;;5075626;28;20040;-67
2023/09/29 07:24:16;;;;;;;6.72;3.20;;;17.10;99.90;;;;;;5075314;28;20036;-68
2023/09/29 07:26:42;;;;;;;4.88;3.28;;;17.10;99.90;;;;;;5074487;28;20059;-69
2023/09/29 07:29:08;;;;;;;6.07;3.30;;;17.10;99.90;;;;;;5075538;28;20052;-69
2023/09/29 07:31:38;;;;;;;6.90;3.70;;;17.10;99.90;;;;;;5075128;28;20037;-70
2023/09/29 07:34:04;;;;;;;6.18;3.08;;;17.10;99.90;;;;;;5075751;28;20452;-69
2023/09/29 07:36:33;;;;;;;5.50;3.15;;;17.20;99.90;;;;;;5075269;28;20180;-69
2023/09/29 07:38:59;;;;;;;5.38;3.15;;;17.20;99.90;;;;;;5074773;28;20060;-69
2023/09/29 07:41:25;;;;;;;5.82;3.33;;;17.20;99.90;;;;;;5075476;28;20377;-69
2023/09/29 07:43:51;;;;;;;4.80;3.13;;;17.30;99.90;;;;;;5075229;28;20059;-69
2023/09/29 07:46:16;;;;;;;7.43;3.20;;;17.30;99.90;;;;;;5074848;28;20449;-69
2023/09/29 07:48:42;;;;;;;7.40;3.35;;;17.40;99.90;;;;;;5075019;28;20043;-68
2023/09/29 07:51:08;;;;;;;7.20;3.47;;;17.50;99.90;;;;;;5075837;28;20123;-69
2023/09/29 07:53:34;;;;;;;7.65;3.35;;;17.70;99.90;;;;;;5074797;28;20036;-69
2023/09/29 07:55:59;;;;;;;6.85;3.30;;;17.80;99.90;;;;;;5075132;28;20454;-69
2023/09/29 07:58:25;;;;;;;7.45;3.50;;;17.90;99.90;;;;;;5074886;28;20044;-68
2023/09/29 08:00:51;;;;;;;7.15;3.10;;;18.00;99.90;;;;;;5074583;28;20046;-69
2023/09/29 08:03:17;;;;;;;6.13;3.63;;;17.90;99.90;;;;;;5074711;28;20072;-70
2023/09/29 08:05:42;;;;;;;6.68;3.40;;;17.90;99.90;;;;;;5073675;28;20046;-69
2023/09/29 08:08:08;;;;;;;5.80;3.42;;;17.90;99.90;;;;;;5075402;28;20044;-69
2023/09/29 08:10:34;;;;;;;5.57;3.00;;;17.90;99.90;;;;;;5074913;28;20366;-69
2023/09/29 08:12:59;;;;;;;4.88;3.08;;;18.00;99.90;;;;;;5074552;28;20044;-69
2023/09/29 08:15:25;;;;;;;6.28;3.40;;;18.00;99.90;;;;;;5074801;28;20036;-69
2023/09/29 08:17:51;;;;;;;5.90;3.20;;;18.00;99.90;;;;;;5074444;28;20131;-68
2023/09/29 08:20:18;;;;;;;6.68;3.72;;;18.10;99.90;;;;;;5073505;28;20037;-68
2023/09/29 08:22:44;;;;;;;5.10;3.75;;;18.20;99.90;;;;;;5074312;28;20040;-68
2023/09/29 08:25:10;;;;;;;6.68;3.75;;;18.20;99.90;;;;;;5074234;28;20048;-69
2023/09/29 08:27:37;;;;;;;5.57;3.22;;;18.30;99.90;;;;;;5074262;28;20132;-69
2023/09/29 08:30:04;;;;;;;5.47;3.25;;;18.30;99.90;;;;;;5073879;28;20603;-69
2023/09/29 08:32:30;;;;;;;4.95;3.08;;;18.40;99.90;;;;;;5074598;28;20121;-69
2023/09/29 08:34:55;;;;;;;4.90;2.97;;;18.50;99.90;;;;;;5073842;28;20079;-69
2023/09/29 08:37:22;;;;;;;5.32;3.17;;;18.50;99.90;;;;;;5074043;28;20040;-68
2023/09/29 08:39:48;;;;;;;6.32;3.20;;;18.70;99.90;;;;;;5074585;28;20056;-69
2023/09/29 08:42:33;;;;;;;4.30;2.95;;;18.80;99.90;;;;;;5074015;28;20123;-69
2023/09/29 08:45:00;;;;;;;5.28;3.33;;;19.00;99.90;;;;;;5073919;28;20465;-69
2023/09/29 08:47:29;;;;;;;4.95;2.75;;;19.00;99.90;;;;;;5074381;28;20036;-69
2023/09/29 08:49:59;;;;;;;4.70;2.65;;;19.10;99.90;;;;;;5074607;28;20044;-69
2023/09/29 08:52:28;;;;;;;4.25;3.35;;;19.10;99.90;;;;;;5074467;28;20422;-70
2023/09/29 08:54:55;;;;;;;5.70;2.72;;;19.30;99.90;;;;;;5073591;28;20040;-68
2023/09/29 08:57:21;;;;;;;5.03;2.78;;;19.40;99.90;;;;;;5073797;28;20044;-69
2023/09/29 08:59:49;;;;;;;4.13;2.65;;;19.50;99.90;;;;;;5073737;28;20052;-68
2023/09/29 09:02:15;;;;;;;4.53;2.78;;;19.60;99.90;;;;;;5074451;28;20032;-70
2023/09/29 09:04:41;;;;;;;4.97;2.80;;;19.70;99.90;;;;;;5073392;28;20497;-69
2023/09/29 09:07:06;;;;;;;4.53;2.22;;;19.80;99.90;;;;;;5073599;28;20086;-70
2023/09/29 09:09:35;;;;;;;4.60;2.33;;;19.90;99.90;;;;;;5073690;28;20037;-69
2023/09/29 09:12:02;;;;;;;3.20;2.63;;;20.00;99.90;;;;;;5074111;28;20119;-69
2023/09/29 09:14:41;;;;;;;3.85;2.58;;;20.10;99.90;;;;;;5073431;28;20041;-69
2023/09/29 09:17:08;;;;;;;4.82;2.70;;;20.20;99.90;;;;;;5073534;28;20045;-69
2023/09/29 09:19:50;;;;;;;3.25;2.10;;;20.20;99.90;;;;;;5072493;28;20044;-69
2023/09/29 09:22:22;;;;;;;3.38;2.22;;;20.30;99.90;;;;;;5074030;28;20040;-69
2023/09/29 09:24:56;;;;;;;5.07;2.40;;;20.40;99.90;;;;;;5073143;28;20044;-68
2023/09/29 09:27:22;;;;;;;3.05;2.17;;;20.40;99.90;;;;;;5073466;28;20055;-69
2023/09/29 09:29:47;;;;;;;3.50;1.92;;;20.40;99.90;;;;;;5073116;28;20045;-70
2023/09/29 09:32:14;;;;;;;4.20;2.25;;;20.40;99.90;;;;;;5073844;28;20040;-69
2023/09/29 09:34:42;;;;;;;3.55;2.10;;;20.40;99.90;;;;;;5074013;28;20115;-69
2023/09/29 09:37:10;;;;;;;3.92;2.28;;;20.40;99.90;;;;;;5055444;28;20040;-69
2023/09/29 09:39:38;;;;;;;2.55;1.83;;;20.40;99.90;;;;;;5073283;28;20055;-69
2023/09/29 09:42:05;;;;;;;4.03;2.42;;;20.50;99.90;;;;;;5073300;28;20439;-69
2023/09/29 09:44:32;;;;;;;4.57;2.20;;;20.60;99.90;;;;;;5073742;28;20049;-68
2023/09/29 09:47:03;;;;;;;4.07;2.20;;;20.70;99.90;;;;;;5073859;28;20078;-68
2023/09/29 09:49:44;;;;;;;6.07;2.38;;;20.90;99.90;;;;;;5073289;28;20044;-69
2023/09/29 09:52:15;;;;;;;5.03;2.20;;;20.90;99.90;;;;;;5071976;28;20040;-70
2023/09/29 09:55:09;;;;;;;4.43;2.10;;;20.80;99.90;;;;;;5073046;28;20043;-69
2023/09/29 09:57:39;;;;;;;3.90;2.58;;;20.90;99.90;;;;;;5073120;28;20079;-69
2023/09/29 10:00:24;;;;;;;4.45;2.30;;;20.90;99.90;;;;;;5073044;28;20048;-69
2023/09/29 10:02:51;;;;;;;4.47;2.30;;;21.00;99.90;;;;;;5073557;28;20479;-69
2023/09/29 10:05:30;;;;;;;3.80;2.10;;;21.10;99.90;;;;;;5072868;28;20381;-69
2023/09/29 10:08:05;;;;;;;3.78;1.73;;;21.20;99.90;;;;;;5073436;28;20076;-68
2023/09/29 10:10:33;;;;;;;4.35;2.40;;;21.30;99.90;;;;;;5073884;28;20044;-69
2023/09/29 10:13:15;;;;;;;4.15;2.15;;;21.20;99.90;;;;;;5072637;28;20075;-69
2023/09/29 10:15:41;;;;;;;2.90;2.28;;;21.30;99.90;;;;;;5072787;28;20045;-69
2023/09/29 10:18:18;;;;;;;3.35;2.10;;;21.30;99.90;;;;;;5071582;28;20471;-69
2023/09/29 10:20:58;;;;;;;4.45;2.10;;;21.20;99.90;;;;;;5072845;28;20101;-68
2023/09/29 10:23:27;;;;;;;4.75;2.60;;;21.20;99.90;;;;;;5072811;28;20115;-68
2023/09/29 10:26:00;;;;;;;4.82;2.60;;;21.20;99.90;;;;;;5072793;28;20097;-68
2023/09/29 10:28:34;;;;;;;4.35;2.70;;;21.40;99.90;;;;;;5072735;28;20131;-69
2023/09/29 10:31:17;;;;;;;4.47;2.22;;;21.40;99.90;;;;;;5072590;28;20119;-69
2023/09/29 10:33:55;;;;;;;3.38;2.30;;;21.40;99.90;;;;;;5072522;28;20425;-69
2023/09/29 10:36:29;;;;;;;4.03;2.20;;;21.40;99.90;;;;;;5071526;28;20048;-69
2023/09/29 10:39:00;;;;;;;3.88;2.00;;;21.50;99.90;;;;;;5072972;28;20057;-69
2023/09/29 10:41:28;;;;;;;3.00;2.28;;;21.40;99.90;;;;;;5073129;28;20048;-68
2023/09/29 10:43:59;;;;;;;4.78;2.05;;;21.40;99.90;;;;;;5075527;28;20040;-69
2023/09/29 10:46:26;;;;;;;5.28;2.30;;;21.20;99.90;;;;;;5076296;28;20123;-69
2023/09/29 10:48:53;;;;;;;4.63;2.45;;;21.10;99.90;;;;;;5075812;28;20059;-69
2023/09/29 10:51:22;;;;;;;3.33;1.85;;;21.00;99.90;;;;;;5076253;28;20429;-69
2023/09/29 10:53:48;;;;;;;3.60;2.25;;;20.90;99.90;;;;;;5076032;28;20041;-69
2023/09/29 10:56:19;;;;;;;5.80;2.55;;;20.70;99.90;;;;;;5076063;28;20095;-69
2023/09/29 10:58:45;;;;;;;4.50;2.45;;;20.60;99.90;;;;;;5076585;28;20075;-69
2023/09/29 11:01:17;;;;;;;4.88;2.60;;;20.50;99.90;;;;;;5076107;28;20059;-68
2023/09/29 11:03:43;;;;;;;4.63;2.40;;;20.50;99.90;;;;;;5075700;28;20106;-69
2023/09/29 11:06:16;;;;;;;4.65;2.83;;;20.50;99.90;;;;;;5076607;28;20364;-69
2023/09/29 11:08:45;;;;;;;4.78;2.80;;;20.50;99.90;;;;;;5075835;28;20378;-67
2023/09/29 11:11:11;;;;;;;5.18;2.67;;;20.60;99.90;;;;;;5074642;28;20087;-69
2023/09/29 11:13:39;;;;;;;5.25;2.40;;;20.60;99.90;;;;;;5074515;28;20043;-69
2023/09/29 11:16:16;;;;;;;5.20;2.90;;;20.60;99.90;;;;;;5075676;28;20036;-68
2023/09/29 11:18:44;;;;;;;4.43;2.50;;;20.70;99.90;;;;;;5075711;28;20044;-68
2023/09/29 11:21:11;;;;;;;5.38;3.00;;;20.80;99.90;;;;;;5075588;28;20047;-67
2023/09/29 11:23:49;;;;;;;4.18;2.75;;;20.90;99.90;;;;;;5075586;28;20040;-69
2023/09/29 11:26:16;;;;;;;5.03;3.00;;;20.90;99.90;;;;;;5075576;28;20101;-68
2023/09/29 11:28:51;;;;;;;4.07;2.60;;;20.90;99.90;;;;;;5076250;28;20376;-68
2023/09/29 11:31:17;;;;;;;4.38;2.70;;;21.00;99.90;;;;;;5075608;28;20115;-68
2023/09/29 11:33:45;;;;;;;4.88;2.55;;;21.00;99.90;;;;;;5075617;28;20552;-68
2023/09/29 11:36:23;;;;;;;3.50;2.50;;;21.00;99.90;;;;;;5074393;28;20087;-69
2023/09/29 11:38:50;;;;;;;3.90;2.75;;;21.10;99.90;;;;;;5075895;28;20099;-69
2023/09/29 11:41:17;;;;;;;6.28;3.28;;;21.10;99.90;;;;;;5075327;28;20128;-68
2023/09/29 11:43:44;;;;;;;3.53;2.50;;;21.10;99.90;;;;;;5075475;28;20406;-69
2023/09/29 11:46:11;;;;;;;3.65;2.80;;;21.00;99.90;;;;;;5075151;28;20040;-69
2023/09/29 11:48:37;;;;;;;4.47;2.70;;;21.00;99.90;;;;;;5074883;28;20445;-69
2023/09/29 11:51:03;;;;;;;4.20;2.80;;;21.00;99.90;;;;;;5075000;28;20047;-68
2023/09/29 11:53:30;;;;;;;4.03;2.90;;;21.00;99.90;;;;;;5074716;28;20036;-68
2023/09/29 11:55:56;;;;;;;4.80;2.80;;;20.90;99.90;;;;;;5074944;28;20049;-68
2023/09/29 11:58:25;;;;;;;5.50;2.92;;;21.00;99.90;;;;;;5073908;28;20044;-68
2023/09/29 12:00:51;;;;;;;3.97;2.90;;;21.00;99.90;;;;;;5074662;28;20041;-68
2023/09/29 12:03:20;;;;;;;3.80;2.75;;;21.10;99.90;;;;;;5074684;28;20424;-68
2023/09/29 12:05:49;;;;;;;5.80;3.28;;;21.20;99.90;;;;;;5074487;28;20044;-70
2023/09/29 12:08:16;;;;;;;3.80;2.70;;;21.20;99.90;;;;;;5074654;28;20040;-68
2023/09/29 12:10:42;;;;;;;4.90;2.80;;;21.30;99.90;;;;;;5075293;28;20350;-68
2023/09/29 12:13:10;;;;;;;3.50;2.72;;;21.30;99.90;;;;;;5074531;28;20135;-68
2023/09/29 12:15:36;;;;;;;5.47;2.95;;;21.20;99.90;;;;;;5074410;28;20044;-68
2023/09/29 12:18:02;;;;;;;3.85;2.63;;;21.20;99.90;;;;;;5074558;28;20084;-68
2023/09/29 12:20:28;;;;;;;5.38;3.00;;;21.20;99.90;;;;;;5075140;28;20040;-68
2023/09/29 12:22:55;;;;;;;5.65;3.08;;;21.10;99.90;;;;;;5072994;28;20044;-67
2023/09/29 12:25:21;;;;;;;5.03;2.75;;;21.10;99.90;;;;;;5073066;28;20048;-68
2023/09/29 12:27:48;;;;;;;4.68;2.70;;;21.10;99.90;;;;;;5072746;28;20501;-68
2023/09/29 12:30:14;;;;;;;4.88;2.95;;;21.00;99.90;;;;;;5074410;28;20051;-68
2023/09/29 12:32:44;;;;;;;5.88;2.80;;;21.10;99.90;;;;;;5074029;28;20040;-68
2023/09/29 12:35:12;;;;;;;3.65;2.88;;;21.10;99.90;;;;;;5074040;28;20045;-68
2023/09/29 12:37:42;;;;;;;5.05;2.90;;;21.00;99.90;;;;;;5072753;28;20449;-67
2023/09/29 12:40:09;;;;;;;4.43;2.60;;;21.00;99.90;;;;;;5074483;28;20078;-68
2023/09/29 12:42:35;;;;;;;4.50;3.15;;;21.00;99.90;;;;;;5073855;28;20044;-68
2023/09/29 12:45:02;;;;;;;5.45;3.10;;;21.00;99.90;;;;;;5073933;28;20139;-68
2023/09/29 12:47:28;;;;;;;6.25;3.10;;;21.00;99.90;;;;;;5073554;28;20473;-67